createdAt,value
2022-08-16T00:01:14.572Z,12.00
2022-08-16T00:03:41.039Z,11.93
2022-08-16T00:06:07.684Z,11.38
2022-08-16T00:08:37.666Z,11.10
2022-08-16T00:11:07.419Z,11.25
2022-08-16T00:13:41.495Z,11.43
2022-08-16T00:17:06.471Z,11.40
2022-08-16T00:18:55.436Z,10.65
2022-08-16T00:21:22.994Z,11.20
2022-08-16T00:23:49.491Z,11.80
2022-08-16T00:26:36.271Z,11.43
2022-08-16T00:29:03.236Z,10.57
2022-08-16T00:31:47.169Z,9.85
2022-08-16T00:34:22.614Z,10.13
2022-08-16T00:37:09.024Z,10.57
2022-08-16T00:39:36.091Z,10.20
2022-08-16T00:42:02.957Z,11.20
2022-08-16T00:44:31.908Z,10.73
2022-08-16T00:47:06.513Z,11.02
2022-08-16T00:49:39.437Z,10.88
2022-08-16T00:52:30.100Z,10.77
2022-08-16T00:54:56.879Z,10.45
2022-08-16T00:57:24.027Z,10.75
2022-08-16T00:59:54.703Z,10.38
2022-08-16T01:02:31.583Z,10.38
2022-08-16T01:05:09.654Z,10.85
2022-08-16T01:07:51.310Z,10.40
2022-08-16T01:10:31.380Z,9.70
2022-08-16T01:13:07.926Z,9.65
2022-08-16T01:15:37.564Z,10.38
2022-08-16T01:18:38.850Z,9.63
2022-08-16T01:21:22.425Z,9.27
2022-08-16T01:24:01.450Z,9.48
2022-08-16T01:26:35.019Z,9.82
2022-08-16T01:29:10.008Z,10.35
2022-08-16T01:31:37.654Z,9.95
2022-08-16T01:34:23.216Z,9.43
2022-08-16T01:37:00.994Z,9.45
2022-08-16T01:39:27.959Z,10.00
2022-08-16T01:41:54.555Z,9.98
2022-08-16T01:44:22.220Z,10.27
2022-08-16T01:46:50.220Z,10.02
2022-08-16T01:49:42.784Z,10.55
2022-08-16T01:52:27.949Z,9.73
2022-08-16T01:55:24.555Z,10.25
2022-08-16T01:57:56.290Z,9.82
2022-08-16T02:00:28.889Z,9.68
2022-08-16T02:02:57.788Z,9.60
2022-08-16T02:05:24.295Z,10.05
2022-08-16T02:07:52.129Z,9.82
2022-08-16T02:10:20.373Z,10.15
2022-08-16T02:13:00.020Z,10.73
2022-08-16T02:15:29.808Z,10.57
2022-08-16T02:18:00.999Z,10.57
2022-08-16T02:20:32.604Z,10.15
2022-08-16T02:23:05.625Z,9.95
2022-08-16T02:25:51.084Z,10.68
2022-08-16T02:28:19.809Z,10.25
2022-08-16T02:30:50.895Z,10.20
2022-08-16T02:33:18.666Z,9.60
2022-08-16T02:35:54.074Z,9.52
2022-08-16T02:38:24.013Z,9.43
2022-08-16T02:40:51.415Z,9.88
2022-08-16T02:43:21.434Z,9.00
2022-08-16T02:45:53.468Z,9.80
2022-08-16T02:48:29.549Z,9.77
2022-08-16T02:51:10.709Z,10.15
2022-08-16T02:53:43.877Z,9.90
2022-08-16T02:56:15.069Z,9.85
2022-08-16T02:58:44.143Z,10.07
2022-08-16T03:01:25.537Z,9.70
2022-08-16T03:04:41.262Z,9.55
2022-08-16T03:06:48.466Z,10.32
2022-08-16T03:09:24.773Z,9.55
2022-08-16T03:11:53.688Z,10.00
2022-08-16T03:14:24.577Z,9.60
2022-08-16T03:17:00.090Z,9.50
2022-08-16T03:19:47.175Z,9.88
2022-08-16T03:22:28.245Z,9.52
2022-08-16T03:25:01.854Z,10.10
2022-08-16T03:27:32.875Z,9.88
2022-08-16T03:30:16.348Z,9.53
2022-08-16T03:32:51.549Z,9.95
2022-08-16T03:35:24.113Z,9.90
2022-08-16T03:38:03.939Z,9.63
2022-08-16T03:40:39.570Z,10.18
2022-08-16T03:43:19.620Z,10.55
2022-08-16T03:48:36.079Z,9.53
2022-08-16T03:51:12.516Z,9.63
2022-08-16T03:53:46.142Z,10.30
2022-08-16T03:56:27.873Z,9.20
2022-08-16T03:58:58.006Z,10.02
2022-08-16T04:01:29.142Z,9.88
2022-08-16T04:03:56.648Z,10.48
2022-08-16T04:06:23.490Z,10.75
2022-08-16T04:08:50.834Z,10.60
2022-08-16T04:11:18.227Z,12.07
2022-08-16T04:14:01.590Z,10.80
2022-08-16T04:16:37.657Z,11.68
2022-08-16T04:19:32.719Z,11.82
2022-08-16T04:22:00.805Z,11.45
2022-08-16T04:24:30.754Z,11.65
2022-08-16T04:26:57.779Z,11.98
2022-08-16T04:29:25.133Z,11.68
2022-08-16T04:31:56.057Z,11.65
2022-08-16T04:34:29.359Z,12.27
2022-08-16T04:36:58.865Z,11.48
2022-08-16T04:39:46.167Z,10.98
2022-08-16T04:42:17.936Z,11.65
2022-08-16T04:44:54.420Z,12.20
2022-08-16T04:47:32.967Z,11.93
2022-08-16T04:50:09.279Z,12.60
2022-08-16T04:52:37.015Z,12.23
2022-08-16T04:55:12.048Z,13.93
2022-08-16T04:57:41.376Z,13.95
2022-08-16T05:00:30.818Z,14.18
2022-08-16T05:03:11.356Z,13.48
2022-08-16T05:05:59.087Z,13.82
2022-08-16T05:08:32.206Z,15.40
2022-08-16T05:11:32.171Z,14.05
2022-08-16T05:14:06.997Z,14.48
2022-08-16T05:16:35.452Z,14.18
2022-08-16T05:19:11.523Z,17.58
2022-08-16T05:21:42.172Z,16.15
2022-08-16T05:24:10.939Z,15.55
2022-08-16T05:26:43.078Z,15.65
2022-08-16T05:29:14.704Z,15.18
2022-08-16T05:31:53.204Z,15.27
2022-08-16T05:34:21.439Z,15.90
2022-08-16T05:36:52.944Z,15.00
2022-08-16T05:39:22.363Z,14.93
2022-08-16T05:41:51.790Z,14.95
2022-08-16T05:44:23.619Z,15.25
2022-08-16T05:46:57.236Z,15.73
2022-08-16T05:49:39.480Z,14.75
2022-08-16T05:52:13.523Z,14.73
2022-08-16T05:54:47.250Z,14.82
2022-08-16T05:57:17.157Z,14.43
2022-08-16T05:59:45.463Z,14.95
2022-08-16T06:02:13.820Z,14.75
2022-08-16T06:04:45.010Z,14.95
2022-08-16T06:07:25.214Z,15.15
2022-08-16T06:10:08.071Z,15.68
2022-08-16T06:12:37.298Z,15.52
2022-08-16T06:15:10.433Z,15.50
2022-08-16T06:17:43.145Z,15.40
2022-08-16T06:20:35.346Z,15.40
2022-08-16T06:23:17.125Z,15.65
2022-08-16T06:26:08.131Z,16.95
2022-08-16T06:28:39.238Z,16.25
2022-08-16T06:31:12.532Z,16.50
2022-08-16T06:33:44.752Z,16.48
2022-08-16T06:36:14.743Z,17.10
2022-08-16T06:38:55.878Z,18.50
2022-08-16T06:41:49.676Z,18.35
2022-08-16T06:44:27.122Z,18.83
2022-08-16T06:46:57.756Z,17.60
2022-08-16T06:52:02.943Z,18.20
2022-08-16T06:54:35.796Z,18.58
2022-08-16T06:57:02.321Z,18.55
2022-08-16T06:59:29.662Z,18.77
2022-08-16T07:02:51.465Z,18.27
2022-08-16T07:05:15.064Z,18.98
2022-08-16T07:07:50.781Z,17.88
2022-08-16T07:10:19.023Z,17.05
2022-08-16T07:13:04.308Z,16.88
2022-08-16T07:15:37.580Z,17.13
2022-08-16T07:18:24.459Z,15.82
2022-08-16T07:20:53.467Z,15.95
2022-08-16T07:23:21.551Z,16.75
2022-08-16T07:26:07.461Z,15.48
2022-08-16T07:28:36.969Z,15.07
2022-08-16T07:31:04.976Z,15.18
2022-08-16T07:33:52.487Z,16.38
2022-08-16T07:36:22.621Z,15.73
2022-08-16T07:38:52.157Z,13.93
2022-08-16T07:41:19.475Z,14.90
2022-08-16T07:43:51.222Z,15.02
2022-08-16T07:46:38.801Z,15.38
2022-08-16T07:49:11.423Z,15.50
2022-08-16T07:51:38.974Z,14.02
2022-08-16T07:54:10.000Z,13.85
2022-08-16T07:56:42.974Z,14.75
2022-08-16T07:59:10.088Z,14.70
2022-08-16T08:01:38.188Z,14.80
2022-08-16T08:04:04.733Z,13.20
2022-08-16T08:06:36.513Z,14.60
2022-08-16T08:09:15.317Z,15.05
2022-08-16T08:12:00.941Z,13.85
2022-08-16T08:14:32.700Z,13.27
2022-08-16T08:17:01.777Z,14.30
2022-08-16T08:19:30.542Z,15.23
2022-08-16T08:22:00.662Z,14.48
2022-08-16T08:24:47.295Z,14.90
2022-08-16T08:27:23.217Z,13.27
2022-08-16T08:30:49.059Z,13.82
2022-08-16T08:32:58.423Z,13.00
2022-08-16T08:35:28.746Z,13.32
2022-08-16T08:37:57.221Z,11.68
2022-08-16T08:40:29.154Z,13.57
2022-08-16T08:43:00.766Z,13.65
2022-08-16T08:45:47.356Z,12.95
2022-08-16T08:48:32.811Z,13.75
2022-08-16T08:51:02.073Z,14.00
2022-08-16T08:53:29.968Z,14.75
2022-08-16T08:55:59.131Z,14.05
2022-08-16T08:58:34.288Z,13.55
2022-08-16T09:01:31.701Z,13.25
2022-08-16T09:04:05.906Z,13.30
2022-08-16T09:06:36.592Z,14.52
2022-08-16T09:09:16.797Z,15.15
2022-08-16T09:11:52.391Z,14.63
2022-08-16T09:14:24.243Z,13.73
2022-08-16T09:17:01.494Z,11.32
2022-08-16T09:19:32.984Z,12.50
2022-08-16T09:22:00.764Z,12.38
2022-08-16T09:24:47.153Z,14.23
2022-08-16T09:27:14.425Z,11.52
2022-08-16T09:29:45.591Z,11.95
2022-08-16T09:32:28.744Z,12.50
2022-08-16T09:34:58.386Z,12.52
2022-08-16T09:37:29.676Z,12.93
2022-08-16T09:40:00.880Z,13.57
2022-08-16T09:42:28.496Z,11.18
2022-08-16T09:45:12.045Z,11.07
2022-08-16T09:47:56.841Z,10.18
2022-08-16T09:50:26.883Z,9.93
2022-08-16T09:53:06.003Z,12.20
2022-08-16T09:55:33.804Z,11.93
2022-08-16T09:58:13.016Z,10.02
2022-08-16T10:00:57.692Z,10.68
2022-08-16T10:03:27.674Z,10.07
2022-08-16T10:05:57.457Z,10.43
2022-08-16T10:08:25.958Z,9.75
2022-08-16T10:11:11.835Z,9.70
2022-08-16T10:13:39.510Z,8.98
2022-08-16T10:19:00.247Z,10.38
2022-08-16T10:21:24.279Z,9.32
2022-08-16T10:23:54.494Z,11.15
2022-08-16T10:27:22.008Z,9.70
2022-08-16T10:29:11.523Z,8.68
2022-08-16T10:31:45.632Z,10.18
2022-08-16T10:34:30.981Z,10.73
2022-08-16T10:37:00.487Z,8.98
2022-08-16T10:39:40.681Z,8.32
2022-08-16T10:42:09.430Z,9.57
2022-08-16T10:44:36.345Z,9.25
2022-08-16T10:47:03.063Z,11.90
2022-08-16T10:49:30.097Z,10.50
2022-08-16T10:52:02.977Z,11.77
2022-08-16T10:55:40.959Z,11.18
2022-08-16T10:57:34.800Z,10.40
2022-08-16T11:00:06.432Z,10.97
2022-08-16T11:03:41.668Z,12.48
2022-08-16T11:08:35.295Z,11.65
2022-08-16T11:11:10.608Z,12.90
2022-08-16T11:17:02.270Z,12.60
2022-08-16T11:19:15.481Z,11.93
2022-08-16T11:24:42.903Z,13.50
2022-08-16T11:27:23.696Z,12.18
2022-08-16T11:29:56.508Z,11.93
2022-08-16T11:32:31.240Z,11.50
2022-08-16T11:35:10.242Z,10.82
2022-08-16T11:40:44.384Z,14.80
2022-08-16T11:43:11.604Z,14.32
2022-08-16T11:45:38.427Z,12.43
2022-08-16T11:48:06.179Z,13.68
2022-08-16T11:50:33.819Z,14.48
2022-08-16T11:53:03.737Z,13.70
2022-08-16T11:55:31.933Z,12.75
2022-08-16T11:58:00.077Z,12.30
2022-08-16T12:00:33.919Z,12.25
2022-08-16T12:03:16.438Z,11.82
2022-08-16T12:05:44.428Z,13.15
2022-08-16T12:08:12.592Z,12.43
2022-08-16T12:10:40.755Z,11.50
2022-08-16T12:13:10.473Z,12.43
2022-08-16T12:15:37.798Z,12.00
2022-08-16T12:18:05.139Z,12.27
2022-08-16T12:20:36.784Z,11.65
2022-08-16T12:23:03.896Z,9.43
2022-08-16T12:25:32.620Z,9.55
2022-08-16T12:28:02.912Z,11.50
2022-08-16T12:30:37.764Z,9.30
2022-08-16T12:33:07.348Z,8.80
2022-08-16T12:35:36.210Z,13.48
2022-08-16T12:38:38.121Z,10.05
2022-08-16T12:40:55.599Z,10.38
2022-08-16T12:43:24.800Z,10.65
2022-08-16T12:45:55.370Z,9.85
2022-08-16T12:48:46.737Z,11.45
2022-08-16T12:51:22.328Z,10.50
2022-08-16T12:53:52.911Z,11.77
2022-08-16T12:56:21.952Z,15.40
2022-08-16T12:58:53.193Z,11.63
2022-08-16T13:01:26.734Z,13.10
2022-08-16T13:04:11.659Z,13.80
2022-08-16T13:06:44.152Z,14.68
2022-08-16T13:09:21.385Z,14.55
2022-08-16T13:12:04.211Z,14.70
2022-08-16T13:14:38.045Z,15.55
2022-08-16T13:17:10.260Z,16.10
2022-08-16T13:20:05.913Z,18.15
2022-08-16T13:22:26.880Z,17.15
2022-08-16T13:24:54.964Z,15.15
2022-08-16T13:28:03.275Z,15.35
2022-08-16T13:30:11.344Z,17.25
2022-08-16T13:32:56.393Z,16.92
2022-08-16T13:35:23.980Z,16.95
2022-08-16T13:37:51.761Z,15.13
2022-08-16T13:40:20.095Z,14.25
2022-08-16T13:42:47.776Z,15.75
2022-08-16T13:45:16.426Z,14.32
2022-08-16T13:47:43.664Z,15.13
2022-08-16T13:50:11.508Z,15.93
2022-08-16T13:52:39.660Z,13.40
2022-08-16T13:55:17.660Z,11.80
2022-08-16T13:58:34.977Z,10.93
2022-08-16T14:00:31.113Z,11.18
2022-08-16T14:02:59.274Z,9.55
2022-08-16T14:05:26.875Z,7.68
2022-08-16T14:07:53.759Z,6.97
2022-08-16T14:10:21.585Z,8.80
2022-08-16T14:12:48.102Z,9.50
2022-08-16T14:15:16.014Z,8.80
2022-08-16T14:18:15.222Z,9.38
2022-08-16T14:20:29.240Z,8.75
2022-08-16T14:22:56.822Z,8.68
2022-08-16T14:25:25.253Z,8.52
2022-08-16T14:27:54.600Z,9.32
2022-08-16T14:30:22.112Z,9.98
2022-08-16T14:32:51.112Z,9.48
2022-08-16T14:35:36.763Z,8.80
2022-08-16T14:38:18.079Z,9.35
2022-08-16T14:40:51.039Z,9.52
2022-08-16T14:43:21.924Z,9.00
2022-08-16T14:45:50.363Z,9.27
2022-08-16T14:48:25.129Z,8.05
2022-08-16T14:50:52.676Z,10.38
2022-08-16T14:53:20.503Z,11.20
2022-08-16T14:55:48.444Z,10.45
2022-08-16T14:58:19.105Z,10.10
2022-08-16T15:00:47.841Z,10.80
2022-08-16T15:03:18.286Z,10.43
2022-08-16T15:05:48.034Z,9.27
2022-08-16T15:08:17.068Z,8.90
2022-08-16T15:10:46.071Z,12.13
2022-08-16T15:13:13.714Z,11.05
2022-08-16T15:15:43.273Z,10.02
2022-08-16T15:18:11.937Z,10.43
2022-08-16T15:20:41.303Z,11.45
2022-08-16T15:23:10.036Z,9.95
2022-08-16T15:25:41.392Z,9.73
2022-08-16T15:28:23.932Z,11.90
2022-08-16T15:31:00.862Z,11.70
2022-08-16T15:33:29.547Z,11.68
2022-08-16T15:35:59.334Z,10.88
2022-08-16T15:38:43.556Z,8.90
2022-08-16T15:41:52.112Z,9.85
2022-08-16T15:44:23.788Z,8.77
2022-08-16T15:46:56.437Z,8.23
2022-08-16T15:49:37.253Z,8.55
2022-08-16T15:52:29.211Z,9.32
2022-08-16T15:57:25.275Z,8.27
2022-08-16T15:59:56.334Z,7.90
2022-08-16T16:02:38.238Z,8.38
2022-08-16T16:05:09.523Z,8.30
2022-08-16T16:07:37.431Z,8.52
2022-08-16T16:10:13.252Z,8.02
2022-08-16T16:12:50.219Z,9.02
2022-08-16T16:15:20.270Z,9.82
2022-08-16T16:17:50.990Z,12.43
2022-08-16T16:20:20.445Z,14.13
2022-08-16T16:22:49.425Z,13.70
2022-08-16T16:25:17.068Z,13.63
2022-08-16T16:27:45.348Z,13.38
2022-08-16T16:30:38.056Z,13.50
2022-08-16T16:33:01.695Z,16.45
2022-08-16T16:35:30.754Z,13.82
2022-08-16T16:40:33.046Z,14.57
2022-08-16T16:43:00.524Z,15.77
2022-08-16T16:45:34.749Z,13.65
2022-08-16T16:48:12.731Z,15.13
2022-08-16T16:50:41.004Z,14.73
2022-08-16T16:53:16.815Z,16.10
2022-08-16T16:55:44.397Z,15.27
2022-08-16T16:58:37.733Z,15.98
2022-08-16T17:01:05.064Z,15.85
2022-08-16T17:03:32.270Z,14.45
2022-08-16T17:06:03.343Z,14.60
2022-08-16T17:08:37.684Z,15.77
2022-08-16T17:11:07.914Z,15.30
2022-08-16T17:13:34.656Z,15.07
2022-08-16T17:16:01.667Z,13.60
2022-08-16T17:19:02.156Z,14.48
2022-08-16T17:21:16.500Z,14.35
2022-08-16T17:23:58.561Z,14.65
2022-08-16T17:26:30.248Z,13.98
2022-08-16T17:29:02.716Z,13.68
2022-08-16T17:31:43.309Z,15.07
2022-08-16T17:34:30.522Z,14.80
2022-08-16T17:37:04.962Z,13.45
2022-08-16T17:39:58.144Z,13.30
2022-08-16T17:42:25.633Z,13.55
2022-08-16T17:44:52.188Z,14.15
2022-08-16T17:47:18.669Z,13.95
2022-08-16T17:49:45.191Z,14.15
2022-08-16T17:52:12.684Z,13.73
2022-08-16T17:54:39.418Z,12.93
2022-08-16T17:57:06.600Z,12.27
2022-08-16T17:59:35.523Z,14.13
2022-08-16T18:02:14.422Z,13.85
2022-08-16T18:04:55.504Z,14.63
2022-08-16T18:07:22.074Z,15.45
2022-08-16T18:09:48.537Z,16.52
2022-08-16T18:12:44.489Z,14.65
2022-08-16T18:15:12.996Z,15.25
2022-08-16T18:17:39.919Z,15.13
2022-08-16T18:20:27.943Z,16.02
2022-08-16T18:22:54.506Z,16.58
2022-08-16T18:25:21.227Z,16.90
2022-08-16T18:27:47.668Z,17.45
2022-08-16T18:30:17.529Z,18.10
2022-08-16T18:32:49.571Z,17.75
2022-08-16T18:35:18.068Z,18.67
2022-08-16T18:37:44.584Z,17.95
2022-08-16T18:40:12.364Z,17.60
2022-08-16T18:42:39.069Z,17.38
2022-08-16T18:45:06.320Z,16.50
2022-08-16T18:47:32.908Z,17.80
2022-08-16T18:50:00.358Z,17.85
2022-08-16T18:52:26.768Z,18.30
2022-08-16T18:55:01.901Z,17.90
2022-08-16T18:57:29.814Z,17.80
2022-08-16T18:59:56.240Z,17.30
2022-08-16T19:02:57.644Z,17.60
2022-08-16T19:05:16.852Z,18.45
2022-08-16T19:07:43.305Z,17.42
2022-08-16T19:10:10.092Z,17.23
2022-08-16T19:12:42.145Z,17.83
2022-08-16T19:15:13.323Z,17.73
2022-08-16T19:17:41.270Z,16.77
2022-08-16T19:20:10.793Z,19.40
2022-08-16T19:23:01.496Z,19.50
2022-08-16T19:25:28.419Z,18.25
2022-08-16T19:28:50.093Z,20.58
2022-08-16T19:31:01.594Z,20.88
2022-08-16T19:33:28.186Z,20.48
2022-08-16T19:35:54.912Z,21.63
2022-08-16T19:38:21.600Z,20.50
2022-08-16T19:40:48.188Z,21.70
2022-08-16T19:43:14.685Z,23.08
2022-08-16T19:45:45.852Z,20.80
2022-08-16T19:48:12.623Z,23.63
2022-08-16T19:50:39.096Z,26.52
2022-08-16T19:53:17.472Z,26.75
2022-08-16T19:55:47.232Z,28.17
2022-08-16T19:58:15.883Z,31.08
2022-08-16T20:00:44.930Z,31.02
2022-08-16T20:03:22.477Z,30.92
2022-08-16T20:05:51.459Z,31.85
2022-08-16T20:08:18.651Z,32.97
2022-08-16T20:10:46.850Z,29.75
2022-08-16T20:13:16.317Z,32.85
2022-08-16T20:15:43.421Z,32.40
2022-08-16T20:18:17.212Z,31.98
2022-08-16T20:20:52.841Z,31.55
2022-08-16T20:23:24.607Z,32.15
2022-08-16T20:25:55.391Z,31.80
2022-08-16T20:28:40.699Z,31.42
2022-08-16T20:31:08.936Z,32.50
2022-08-16T20:33:35.375Z,32.15
2022-08-16T20:36:01.805Z,31.08
2022-08-16T20:38:28.240Z,31.70
2022-08-16T20:40:54.942Z,31.33
2022-08-16T20:43:21.561Z,30.50
2022-08-16T20:45:48.310Z,30.25
2022-08-16T20:48:15.241Z,28.77
2022-08-16T20:50:41.879Z,28.70
2022-08-16T20:53:08.940Z,27.70
2022-08-16T20:55:36.822Z,29.33
2022-08-16T20:58:03.678Z,28.67
2022-08-16T21:00:30.914Z,30.15
2022-08-16T21:02:57.381Z,30.88
2022-08-16T21:05:27.786Z,28.65
2022-08-16T21:07:57.404Z,26.40
2022-08-16T21:10:24.438Z,26.13
2022-08-16T21:12:56.986Z,23.15
2022-08-16T21:15:26.261Z,26.05
2022-08-16T21:17:53.656Z,24.58
2022-08-16T21:20:22.545Z,22.25
2022-08-16T21:22:54.545Z,26.90
2022-08-16T21:25:23.218Z,29.67
2022-08-16T21:28:39.995Z,28.40
2022-08-16T21:30:38.364Z,29.75
2022-08-16T21:33:07.936Z,29.02
2022-08-16T21:35:35.057Z,29.48
2022-08-16T21:38:29.357Z,30.13
2022-08-16T21:40:48.223Z,28.73
2022-08-16T21:43:20.858Z,29.40
2022-08-16T21:45:47.700Z,29.83
2022-08-16T21:48:14.441Z,29.42
2022-08-16T21:50:42.583Z,32.08
2022-08-16T21:53:08.969Z,33.03
2022-08-16T21:55:36.941Z,33.40
2022-08-16T21:58:04.723Z,34.20
2022-08-16T22:00:31.665Z,33.30
2022-08-16T22:03:02.154Z,34.13
2022-08-16T22:05:29.392Z,34.50
2022-08-16T22:08:00.871Z,33.85
2022-08-16T22:11:05.590Z,34.45
2022-08-16T22:13:25.774Z,32.75
2022-08-16T22:15:53.414Z,34.38
2022-08-16T22:18:20.596Z,35.17
2022-08-16T22:20:48.143Z,33.15
2022-08-16T22:23:18.847Z,33.00
2022-08-16T22:25:47.047Z,34.85
2022-08-16T22:28:15.031Z,34.25
2022-08-16T22:30:42.229Z,33.95
2022-08-16T22:33:20.865Z,33.38
2022-08-16T22:35:50.993Z,32.90
2022-08-16T22:38:53.943Z,32.25
2022-08-16T22:41:05.819Z,32.70
2022-08-16T22:43:32.732Z,31.95
2022-08-16T22:45:59.564Z,32.22
2022-08-16T22:48:26.095Z,31.15
2022-08-16T22:50:52.886Z,31.67
2022-08-16T22:53:19.454Z,30.73
2022-08-16T22:55:46.364Z,30.20
2022-08-16T22:58:13.832Z,30.42
2022-08-16T23:00:40.809Z,30.73
2022-08-16T23:03:16.213Z,29.05
2022-08-16T23:05:55.064Z,29.88
2022-08-16T23:08:32.310Z,30.42
2022-08-16T23:11:06.056Z,29.75
2022-08-16T23:13:32.876Z,29.05
2022-08-16T23:16:03.284Z,29.00
2022-08-16T23:18:38.746Z,28.02
2022-08-16T23:21:08.213Z,29.23
2022-08-16T23:23:35.000Z,28.65
2022-08-16T23:26:01.616Z,27.20
2022-08-16T23:28:30.690Z,29.25
2022-08-16T23:30:58.412Z,27.10
2022-08-16T23:33:26.910Z,27.40
2022-08-16T23:35:59.188Z,27.15
2022-08-16T23:38:37.778Z,27.85
2022-08-16T23:41:09.442Z,26.98
2022-08-16T23:43:41.608Z,27.40
2022-08-16T23:46:11.634Z,26.38
2022-08-16T23:49:59.494Z,27.30
2022-08-16T23:51:24.546Z,27.38
2022-08-16T23:53:51.012Z,26.73
2022-08-16T23:56:20.479Z,26.80
2022-08-16T23:58:54.568Z,27.52
